Terminal Aerodrome Forecast
Issued by NWS

Home | Current Version | Previous Version | Text Only | Print | Product List | Glossary On
Versions: 1 2 3 4 5 6 7 8 9 10 11
534
FTUS46 KLOX 072359
TAFWJF
TAF
KWJF 072359Z 0800/0824 08012KT P6SM SKC
     FM080500 27006KT P6SM SKC WS015/04040KT
     FM080800 VRB06KT P6SM SKC
     FM081800 05015G25KT P6SM SKC=

USA.gov is the U.S. government's official web portal to all federal, state and local government web resources and services.